KSRE

Seminole Municipal Airport

Seminole, Oklahoma, USA
METAR KSRE 190655Z AUTO VRB04G11KT 4SM BR OVC005 07/05 A2993 RMK AO2
Observed Flight Rules
Dec-19 @ 06:55 UTC (37 minutes ago) Instrument Flight Rules
Wind Visibility Clouds Conditions
Variable at 4 knots
 Gusting to 11 knots
4 miles
  • Overcast at 500' AGL
  • Mist
Temperatures Readings
Current 7°C / 45°F
Dewpoint 5°C / 41°F
Humidity 87%
Altimeter 29.93" Hg
Pressure 1014 hPa
Elevation 312
METAR KSRE 190655Z AUTO VRB04G11KT 4SM BR OVC005 07/05 A2993 RMK AO2
Observed Flight Rules
Dec-19 @ 06:55 UTC
(37 minutes ago)
IFR
Wind Visibility
Variable at 4 knots
 Gusting to 11 knots
4 miles
Clouds
  • Overcast at 500' AGL
Conditions
  • Mist
Temperature Dewpoint
7°C / 45°F 5°C / 41°F
Humidity Altimeter Pressure
87% 29.93" Hg 1014 hPa